Wechselhaft mit Cirrus-Wolken, wahrscheinlich mit Gewitterwolken
Wechselhaft mit Cirrus-Wolken, wahrscheinlich mit Gewitterwolken
Wechselhaft mit Cirrus-Wolken, wahrscheinlich mit Gewitterwolken
Wechselhaft mit Cirrus-Wolken, wahrscheinlich mit Gewitterwolken
Wechselhaft mit Cirrus-Wolken, wahrscheinlich mit Gewitterwolken
Leichter Regen, Gewitter möglich
Klar mit einigen niederen Wolken sowie Cirrus-Wolken
(°C)
24°
24°
24°
24°
24°
24°
24°
24°
23°
23°
22°
22°
21°
21°
(°C)
25°
25°
25°
24°
23°
22°
21°
S
S
S
SSO
SSO
SO
SSO
(km/h)
5-20
5-22
5-23
6-23
6-23
6-23
5-22
(mm)
0
0
0
0
0
0.1
0
(%)
46
46
40
36
35
35
34

Sonnenhöhe

/ 57.6°
sun-icon
UV 4
05:04
21:29
Abnehmender Mond (216°)
00:26
06:31

METAR für Hermannsburg (ETHS)

Zeit Bedingungen Temperatur/
Taupunkt
Wind Sichtweite Wetter Wolken Druck Änderung Roh
VFR 24°C / 11°C 150º 7kt 9700m - Scattered Clouds 5000ft 1016 - ETHS 261120Z 15007KT 9999 SCT050 24/11 Q1016 BLU+
VFR 23°C / 12°C 170º 7kt 9700m - Scattered Clouds 4000ft 1017 - ETHS 261020Z 17007KT 9999 SCT040 23/12 Q1017 BLU+
VFR 22°C / 13°C 140º 6kt 9700m - Scattered Clouds 4000ft 1017 - ETHS 260920Z 14006KT 9999 SCT040 22/13 Q1017 BLU+
VFR 21°C / 15°C 3kt 9700m - Few Clouds 2000ft 1017 - ETHS 260820Z VRB03KT 9999 FEW020 21/15 Q1017 BLU+
VFR 19°C / 15°C 90º 4kt 9700m - Scattered Clouds 11000ft 1017 - ETHS 260720Z 09004KT 9999 SCT110 19/15 Q1017 BLU+
VFR 17°C / 14°C 70º 4kt 9700m - Few Clouds 11000ft 1018 - ETHS 260620Z 07004KT 9999 FEW110 17/14 Q1018 BLU+
VFR 14°C / 13°C variable 0kt 9700m - Few Clouds 12000ft
Scattered Clouds 28000ft
1018 - ETHS 260520Z 00000KT 9999 FEW120 SCT280 14/13 Q1018 BLU+
LIFR 12°C / 12°C 20º 1kt 260m - 1017 - ETHS 260420Z AUTO 02001KT 0250 // ////// 12/12 Q1017 ///
LIFR 12°C / 12°C variable 0kt 350m - 1017 - ETHS 260320Z AUTO 00000KT 0350 // ////// 12/12 Q1017 ///
LIFR 13°C / 12°C 330º 1kt 140m - 1017 - ETHS 260220Z AUTO 33001KT 0150 // ////// 13/12 Q1017 ///
LIFR 13°C / 13°C 310º 1kt 310m - 1017 - ETHS 260120Z AUTO 31001KT 0300 // ////// 13/13 Q1017 ///
VFR 13°C / 13°C 60º 3kt 9700m - 1017 - ETHS 260020Z AUTO 06003KT 9999 // ////// 13/13 Q1017 ///
VFR 14°C / 13°C 60º 4kt 9700m - 1017 - ETHS 252320Z AUTO 06004KT 9999 // ////// 14/13 Q1017 ///
VFR 15°C / 13°C 50º 3kt 9700m - 1018 - ETHS 252220Z AUTO 05003KT 9999 // ////// 15/13 Q1018 ///
VFR 16°C / 12°C 320º 4kt 9700m - 1018 - ETHS 252120Z AUTO 32004KT 9999 // ////// 16/12 Q1018 ///
VFR 16°C / 15°C 350º 1kt 9700m - 1017 - ETHS 252020Z AUTO 35001KT 9999 // ////// 16/15 Q1017 ///
VFR 17°C / 15°C 100º 4kt 9700m - 1017 - ETHS 251920Z AUTO 10004KT 9999 // ////// 17/15 Q1017 ///
VFR 19°C / 14°C 80º 4kt 9700m - 1016 - ETHS 251820Z AUTO 08004KT 9999 // ////// 19/14 Q1016 ///
VFR 20°C / 14°C 120º 6kt 9700m - 1016 - ETHS 251720Z AUTO 12006KT 9999 // ////// 20/14 Q1016 ///
VFR 19°C / 15°C 100º 4kt 9700m - 1016 - ETHS 251620Z AUTO 10004KT 9999 // ////// 19/15 Q1016 ///
VFR 20°C / 14°C 70º 5kt 9700m - 1016 - ETHS 251520Z AUTO 07005KT 9999 // ////// 20/14 Q1016 ///
VFR 20°C / 13°C 100º 4kt 9700m - 1016 - ETHS 251420Z AUTO 10004KT 9999 // ////// 20/13 Q1016 ///
VFR 19°C / 14°C 30º 5kt 9700m - 1016 - ETHS 251320Z AUTO 03005KT 9999 // ////// 19/14 Q1016 ///
VFR 20°C / 14°C 80º 4kt 9700m - 1017 - ETHS 251220Z AUTO 08004KT 9999 // ////// 20/14 Q1017 ///

VFR

24°C / 11°C

[Mehr]
Wind 150º 7kt
Sichtweite 9700m
Wetter -
Wolken Scattered Clouds 5000ft
Druck 1016
Änderung -
Roh ETHS 261120Z 15007KT 9999 SCT050 24/11 Q1016 BLU+

VFR

23°C / 12°C

[Mehr]
Wind 170º 7kt
Sichtweite 9700m
Wetter -
Wolken Scattered Clouds 4000ft
Druck 1017
Änderung -
Roh ETHS 261020Z 17007KT 9999 SCT040 23/12 Q1017 BLU+

VFR

22°C / 13°C

[Mehr]
Wind 140º 6kt
Sichtweite 9700m
Wetter -
Wolken Scattered Clouds 4000ft
Druck 1017
Änderung -
Roh ETHS 260920Z 14006KT 9999 SCT040 22/13 Q1017 BLU+

VFR

21°C / 15°C

[Mehr]
Wind 3kt
Sichtweite 9700m
Wetter -
Wolken Few Clouds 2000ft
Druck 1017
Änderung -
Roh ETHS 260820Z VRB03KT 9999 FEW020 21/15 Q1017 BLU+

VFR

19°C / 15°C

[Mehr]
Wind 90º 4kt
Sichtweite 9700m
Wetter -
Wolken Scattered Clouds 11000ft
Druck 1017
Änderung -
Roh ETHS 260720Z 09004KT 9999 SCT110 19/15 Q1017 BLU+

VFR

17°C / 14°C

[Mehr]
Wind 70º 4kt
Sichtweite 9700m
Wetter -
Wolken Few Clouds 11000ft
Druck 1018
Änderung -
Roh ETHS 260620Z 07004KT 9999 FEW110 17/14 Q1018 BLU+

VFR

14°C / 13°C

[Mehr]
Wind variable 0kt
Sichtweite 9700m
Wetter -
Wolken Few Clouds 12000ft
Scattered Clouds 28000ft
Druck 1018
Änderung -
Roh ETHS 260520Z 00000KT 9999 FEW120 SCT280 14/13 Q1018 BLU+

LIFR

12°C / 12°C

[Mehr]
Wind 20º 1kt
Sichtweite 260m
Wetter -
Wolken
Druck 1017
Änderung -
Roh ETHS 260420Z AUTO 02001KT 0250 // ////// 12/12 Q1017 ///

LIFR

12°C / 12°C

[Mehr]
Wind variable 0kt
Sichtweite 350m
Wetter -
Wolken
Druck 1017
Änderung -
Roh ETHS 260320Z AUTO 00000KT 0350 // ////// 12/12 Q1017 ///

LIFR

13°C / 12°C

[Mehr]
Wind 330º 1kt
Sichtweite 140m
Wetter -
Wolken
Druck 1017
Änderung -
Roh ETHS 260220Z AUTO 33001KT 0150 // ////// 13/12 Q1017 ///

LIFR

13°C / 13°C

[Mehr]
Wind 310º 1kt
Sichtweite 310m
Wetter -
Wolken
Druck 1017
Änderung -
Roh ETHS 260120Z AUTO 31001KT 0300 // ////// 13/13 Q1017 ///

VFR

13°C / 13°C

[Mehr]
Wind 60º 3kt
Sichtweite 9700m
Wetter -
Wolken
Druck 1017
Änderung -
Roh ETHS 260020Z AUTO 06003KT 9999 // ////// 13/13 Q1017 ///

VFR

14°C / 13°C

[Mehr]
Wind 60º 4kt
Sichtweite 9700m
Wetter -
Wolken
Druck 1017
Änderung -
Roh ETHS 252320Z AUTO 06004KT 9999 // ////// 14/13 Q1017 ///

VFR

15°C / 13°C

[Mehr]
Wind 50º 3kt
Sichtweite 9700m
Wetter -
Wolken
Druck 1018
Änderung -
Roh ETHS 252220Z AUTO 05003KT 9999 // ////// 15/13 Q1018 ///

VFR

16°C / 12°C

[Mehr]
Wind 320º 4kt
Sichtweite 9700m
Wetter -
Wolken
Druck 1018
Änderung -
Roh ETHS 252120Z AUTO 32004KT 9999 // ////// 16/12 Q1018 ///

VFR

16°C / 15°C

[Mehr]
Wind 350º 1kt
Sichtweite 9700m
Wetter -
Wolken
Druck 1017
Änderung -
Roh ETHS 252020Z AUTO 35001KT 9999 // ////// 16/15 Q1017 ///

VFR

17°C / 15°C

[Mehr]
Wind 100º 4kt
Sichtweite 9700m
Wetter -
Wolken
Druck 1017
Änderung -
Roh ETHS 251920Z AUTO 10004KT 9999 // ////// 17/15 Q1017 ///

VFR

19°C / 14°C

[Mehr]
Wind 80º 4kt
Sichtweite 9700m
Wetter -
Wolken
Druck 1016
Änderung -
Roh ETHS 251820Z AUTO 08004KT 9999 // ////// 19/14 Q1016 ///

VFR

20°C / 14°C

[Mehr]
Wind 120º 6kt
Sichtweite 9700m
Wetter -
Wolken
Druck 1016
Änderung -
Roh ETHS 251720Z AUTO 12006KT 9999 // ////// 20/14 Q1016 ///

VFR

19°C / 15°C

[Mehr]
Wind 100º 4kt
Sichtweite 9700m
Wetter -
Wolken
Druck 1016
Änderung -
Roh ETHS 251620Z AUTO 10004KT 9999 // ////// 19/15 Q1016 ///

VFR

20°C / 14°C

[Mehr]
Wind 70º 5kt
Sichtweite 9700m
Wetter -
Wolken
Druck 1016
Änderung -
Roh ETHS 251520Z AUTO 07005KT 9999 // ////// 20/14 Q1016 ///

VFR

20°C / 13°C

[Mehr]
Wind 100º 4kt
Sichtweite 9700m
Wetter -
Wolken
Druck 1016
Änderung -
Roh ETHS 251420Z AUTO 10004KT 9999 // ////// 20/13 Q1016 ///

VFR

19°C / 14°C

[Mehr]
Wind 30º 5kt
Sichtweite 9700m
Wetter -
Wolken
Druck 1016
Änderung -
Roh ETHS 251320Z AUTO 03005KT 9999 // ////// 19/14 Q1016 ///

VFR

20°C / 14°C

[Mehr]
Wind 80º 4kt
Sichtweite 9700m
Wetter -
Wolken
Druck 1017
Änderung -
Roh ETHS 251220Z AUTO 08004KT 9999 // ////// 20/14 Q1017 ///

TAF für Hermannsburg (ETHS)

From till


From till Wind 70º 8kt. Visibility 9700m. Scattered Clouds 3000ft. Broken Clouds 25000ft.
Temporarly from till Wind 80º 15kt. Gust 25kt. Visibility 5000m. Showers Rain . Scattered Clouds 1500ft. Broken Clouds 3000ft.
With 30% probability, from till Wind 60º 15kt. Gust 30kt. Visibility 2000m. Thunderstorm Rain . Scattered Clouds 1000ft. Broken Clouds 2000ft.

Roh: TAF ETHS 240718Z 2408/2417 07008KT 9999 NSW SCT030 BKN250 TEMPO 2414/2417 08015G25KT 5000 SHRA SCT015 BKN030CB PROB30 2415/2417 06015G30KT 2000 TSRA SCT010 BKN020CB

rainNOW: Regenvorhersage für Hermannsburg und Umgebung (25km Radius)

0.0 mm
0.0 mm
0.0 mm
0.0 mm
0.0 mm
0.0 mm
0.0 mm
0.0 mm
0.0 mm
0.0 mm
0.0 mm
0.0 mm

Radar- und Niederschlags-Nowcast für Hermannsburg

Nieselregen
Leicht
Moderat
Stark
Sehr schwer
Hagel

Die Ortsmarkierung zeigt auf Hermannsburg. Diese Animation zeigt das Niederschlagsradar für den ausgewählten Zeitraum sowie eine 2h-Vorhersage. Orange Kreuze zeigen Blitze an. Daten bereitgestellt von nowcast.de (verfügbar in den USA, Europa, Australien). Nieselregen oder leichter Schneefall können für den Radar unsichtbar sein. Die Niederschlagsintensität ist farbcodiert und reicht von hellblau bis rot.

Aktuelle Satelliten- und Regenbilder für Hermannsburg, Deutschland

Die Standortmarkierung ist platziert auf Hermannsburg. [Mehr]

Das Echtzeit-Satellitenbild kombiniert sichtbares Licht während des Tages mit Infrarotstrahlung während der Nacht. Nachts ist das Bild nicht dunkel, da Infrarotstrahlung Temperaturunterschiede erkennen kann. Leider sind niedrige Wolken und Nebel nur schwer von den Bodentemperaturen zu unterscheiden und können daher nachts fast unsichtbar sein. Meteosat-Satellitenbilder für Europa werden alle 5 Minuten in Echtzeit aktualisiert. Die Bilder GOES-16 / GOES-17 (Nord- und Südamerika) und Himawari (Asien) werden alle 10 Minuten aktualisiert.

Niederschläge werden von Radar und Satelliten berechnet. Nachts sind die Niederschlagsberechnungen durch die Satelliten weniger genau als tagsüber.

© 2024 meteoblue, NOAA Satellites GOES-16 and EUMETSAT. Blitzdaten zur Verfügung gestellt von nowcast.

Zum Anfang
×
Hallo,
es scheint, als würden Sie einen Werbeblocker benutzen.

Werbung ist unerlässlich, um unsere kostenlose Website mit einzigartiger Detailtreue und Genauigkeit zu pflegen.

Bitte setzen Sie www.meteoblue.com auf die Whitelist Ihres Werbeblockers oder erwägen Sie den Kauf eines unserer Produkte:

Sie haben bereits ein Abonnement?
Dann melden Sie sich bitte an.